To NAV CANADA Home Page Login to a new session Search on AWWS site Feedback and Comments Disclaimer Vers la page française équivalente Tips FAQ What's new on the site To the Forecasts and Observations / NOTAM section To "File a Flight Plan" website Publications and other links Update of the User's profile FIC Telephone Numbers My Weather Data Folder Route Weather Data Regional Weather Data Local Weather Data To the Forecasts and Observations / NOTAM section
Request Generated 06/26/2017 at 03:39:10 UTC . Weather information available at that time is displayed.

METAR/TAF

If you find any discrepancies between the coded METAR/TAF and the plain language METAR/TAF please use the coded METAR/TAF. LWIS bulletins are not decoded in plain language.

CALGARY/SPRINGBANK/AB    (show WxCam)

METAR CYBW 260300Z AUTO 15014G20KT 9SM CLR 21/10 A3008 RMK SLP182 DENSITY ALT 5300FT=
METAR
LOCATION
CYBW - CALGARY/SPRINGBANK/AB
DATE - TIME
26 JUNE 2017 - 0300 UTC
WIND
150 TRUE @ 14  KNOTS
GUSTS
20 KNOTS
VISIBILITY
9 STAT.  MILES
RUNWAY VISUAL RANGE
WEATHER
CLOUDINESS
CLEAR SKY
TEMP / DEWPOINT
21 C / 10 C
ALTIMETER
30.08 IN HG
RECENT WEATHER
WIND SHEAR

METAR CYBW 260200Z AUTO 15015G20KT 9SM CLR 23/09 A3010 RMK SLP189 DENSITY ALT 5500FT=
METAR
LOCATION
CYBW - CALGARY/SPRINGBANK/AB
DATE - TIME
26 JUNE 2017 - 0200 UTC
WIND
150 TRUE @ 15  KNOTS
GUSTS
20 KNOTS
VISIBILITY
9 STAT.  MILES
RUNWAY VISUAL RANGE
WEATHER
CLOUDINESS
CLEAR SKY
TEMP / DEWPOINT
23 C / 9 C
ALTIMETER
30.10 IN HG
RECENT WEATHER
WIND SHEAR

METAR CYBW 260100Z AUTO 15016G25KT 9SM FEW210 24/09 A3011 RMK SLP195 DENSITY ALT 5500FT=
METAR
LOCATION
CYBW - CALGARY/SPRINGBANK/AB
DATE - TIME
26 JUNE 2017 - 0100 UTC
WIND
150 TRUE @ 16  KNOTS
GUSTS
25 KNOTS
VISIBILITY
9 STAT.  MILES
RUNWAY VISUAL RANGE
WEATHER
CLOUDINESS
FEW CLOUDS (1/8 - 2/8) 21000  FT
TEMP / DEWPOINT
24 C / 9 C
ALTIMETER
30.11 IN HG
RECENT WEATHER
WIND SHEAR

TAF CYBW 252339Z 2600/2604 14015G25KT P6SM FEW140 SCT250 RMK FCST BASED ON AUTO OBS. NXT FCST WILL BE ISSUED AT 261145Z=
TAF
LOCATION

CYBW - CALGARY/SPRINGBANK/AB
VALIDITY [UTC]
25 JUN - 2339 to
26 JUN - 0400
 
TIMES
[UTC]
WIND
[DEGREES TRUE]
VISIBILITY
[STAT. MILES]
WEATHER
CLOUDINESS
[FEET AGL]
 
26 JUN - 0000 to
26 JUN - 0400
140 @ 15 KNOTS
GUSTS 25 KNOTS
6+
NIL
14000 FEW
25000 SCATTERED
REMARKS
THE FORECAST IS BASED ON AUTOMATIC OBSERVATIONS - THE NEXT FORECAST WILL BE ISSUED AT 1145 UTC ON DAY 26


Your time UTC time
Weather data provided by Environment Canada and NAV CANADA